Decoded Metar for KIPJ (LINCOLNTON in NC, USA) (IATA:IPJ) | Meteo·Mobile Aviation Weather
aviador You're here:

KIPJ Decoded Metar

LINCOLNTON in NC, USA
Report Time2019-02-23 00:35:00
UTC Time2019-02-23 00:35:57
Flight Rules ifr IFR
WindCalm
Visibility9999 m
Phenomena:N/A
Clouds:Overcast 006 Hf
Ceiling600 ft
Temp08°C (ISA -5)
Dew Point08°C (100% RH)
AAT7.5°C
QNH1027 hPa
Density Alt-79 ft
Elevation876 ft
Report Wrong Elevation
Raw Report
METAR KIPJ 230035Z AUTO 00000KT 10SM OVC006 08/08 A3034 RMK AO2 T00810080=

Extra information for KIPJ:More info

Metar Taf Metar & Taf Last 4 Metars F.Rules Stats Wind Profile Meteogram Temp Stats Airport Information Weather charts Add Link Nearby VenuesMetar ALERT Operation Metar Decoded Social comments

AIRNAV info for KIPJ